createdAt,value
2019-01-19T00:00:45.139Z,62.1
2019-01-19T00:01:35.453Z,62.1
2019-01-19T00:02:25.282Z,62
2019-01-19T00:03:15.568Z,62
2019-01-19T00:04:05.818Z,62
2019-01-19T00:04:55.621Z,62
2019-01-19T00:05:45.475Z,62
2019-01-19T00:06:34.978Z,62
2019-01-19T00:07:26.129Z,61.9
2019-01-19T00:08:15.838Z,61.9
2019-01-19T00:09:06.153Z,61.9
2019-01-19T00:09:56.253Z,61.9
2019-01-19T00:10:46.328Z,61.9
2019-01-19T00:11:36.351Z,61.9
2019-01-19T00:12:26.402Z,61.9
2019-01-19T00:13:16.724Z,61.9
2019-01-19T00:14:06.790Z,61.9
2019-01-19T00:14:56.832Z,61.9
2019-01-19T00:15:46.623Z,61.9
2019-01-19T00:16:36.670Z,61.9
2019-01-19T00:17:26.467Z,61.9
2019-01-19T00:18:16.851Z,61.8
2019-01-19T00:19:07.122Z,61.8
2019-01-19T00:19:57.220Z,61.8
2019-01-19T00:20:46.692Z,61.8
2019-01-19T00:21:37.010Z,61.8
2019-01-19T00:22:27.072Z,61.8
2019-01-19T00:23:17.164Z,61.8
2019-01-19T00:24:06.897Z,61.8
2019-01-19T00:24:56.985Z,61.8
2019-01-19T00:25:47.023Z,61.8
2019-01-19T00:26:36.797Z,61.8
2019-01-19T00:27:27.399Z,61.8
2019-01-19T00:28:16.637Z,61.8
2019-01-19T00:29:07.809Z,61.8
2019-01-19T00:29:57.296Z,61.8
2019-01-19T00:30:47.424Z,61.8
2019-01-19T00:31:37.701Z,61.8
2019-01-19T00:32:27.494Z,61.7
2019-01-19T00:33:17.543Z,61.7
2019-01-19T00:34:07.900Z,61.7
2019-01-19T00:34:58.214Z,61.7
2019-01-19T00:35:47.694Z,61.7
2019-01-19T00:36:38.036Z,61.7
2019-01-19T00:37:27.314Z,61.6
2019-01-19T00:38:18.142Z,61.6
2019-01-19T00:39:08.191Z,61.6
2019-01-19T00:39:57.491Z,61.6
2019-01-19T00:40:48.591Z,61.6
2019-01-19T00:41:38.661Z,61.6
2019-01-19T00:42:28.428Z,61.6
2019-01-19T00:43:18.213Z,61.6
2019-01-19T00:44:07.441Z,61.6
2019-01-19T00:44:58.698Z,61.6
2019-01-19T00:45:48.668Z,61.6
2019-01-19T00:46:38.712Z,61.6
2019-01-19T00:47:29.048Z,61.6
2019-01-19T00:48:18.838Z,61.5
2019-01-19T00:49:08.897Z,61.6
2019-01-19T00:49:59.233Z,61.5
2019-01-19T00:50:48.733Z,61.5
2019-01-19T00:51:38.783Z,61.5
2019-01-19T00:52:29.405Z,61.5
2019-01-19T00:53:18.894Z,61.5
2019-01-19T00:54:09.232Z,61.4
2019-01-19T00:54:59.340Z,61.5
2019-01-19T00:55:49.072Z,61.5
2019-01-19T00:56:39.115Z,61.4
2019-01-19T00:57:29.182Z,61.4
2019-01-19T00:58:19.795Z,61.4
2019-01-19T00:59:09.842Z,61.4
2019-01-19T00:59:59.619Z,61.4
2019-01-19T01:00:48.843Z,61.4
2019-01-19T01:01:40.032Z,61.4
2019-01-19T01:02:30.084Z,61.4
2019-01-19T01:03:19.798Z,61.4
2019-01-19T01:04:09.902Z,61.4
2019-01-19T01:05:00.007Z,61.4
2019-01-19T01:05:50.049Z,61.4
2019-01-19T01:06:39.607Z,61.3
2019-01-19T01:07:30.135Z,61.4
2019-01-19T01:08:20.212Z,61.3
2019-01-19T01:09:10.252Z,61.3
2019-01-19T01:10:00.660Z,61.3
2019-01-19T01:10:50.642Z,61.3
2019-01-19T01:11:40.419Z,61.3
2019-01-19T01:12:30.201Z,61.3
2019-01-19T01:13:20.822Z,61.3
2019-01-19T01:14:10.871Z,61.3
2019-01-19T01:15:00.742Z,61.3
2019-01-19T01:15:50.709Z,61.3
2019-01-19T01:16:40.490Z,61.3
2019-01-19T01:17:31.094Z,61.3
2019-01-19T01:18:20.878Z,61.3
2019-01-19T01:19:10.688Z,61.3
2019-01-19T01:19:59.971Z,61.2
2019-01-19T01:20:50.868Z,61.2
2019-01-19T01:21:41.101Z,61.2
2019-01-19T01:22:30.205Z,61.2
2019-01-19T01:23:21.224Z,61.2
2019-01-19T01:24:10.806Z,61.2
2019-01-19T01:25:01.143Z,61.2
2019-01-19T01:25:51.111Z,61.1
2019-01-19T01:26:40.685Z,61.1
2019-01-19T01:27:30.780Z,61.1
2019-01-19T01:28:20.808Z,61.1
2019-01-19T01:29:11.411Z,61.1
2019-01-19T01:30:01.243Z,61.1
2019-01-19T01:30:51.515Z,61.1
2019-01-19T01:31:41.318Z,61.1
2019-01-19T01:32:30.867Z,61.1
2019-01-19T01:33:21.771Z,61.1
2019-01-19T01:34:11.511Z,61.1
2019-01-19T01:35:01.670Z,61.1
2019-01-19T01:35:51.923Z,61.1
2019-01-19T01:36:41.645Z,61.1
2019-01-19T01:37:31.715Z,61.1
2019-01-19T01:38:21.800Z,61.1
2019-01-19T01:39:11.015Z,61
2019-01-19T01:40:01.104Z,61
2019-01-19T01:40:52.398Z,61
2019-01-19T01:41:42.272Z,61
2019-01-19T01:42:32.329Z,61
2019-01-19T01:43:22.443Z,61
2019-01-19T01:44:12.467Z,61
2019-01-19T01:45:02.797Z,60.9
2019-01-19T01:45:52.203Z,60.9
2019-01-19T01:46:42.816Z,60.9
2019-01-19T01:47:32.932Z,60.9
2019-01-19T01:48:22.659Z,60.9
2019-01-19T01:49:13.267Z,60.9
2019-01-19T01:50:03.322Z,60.9
2019-01-19T01:50:53.369Z,60.9
2019-01-19T01:51:42.871Z,60.9
2019-01-19T01:52:33.484Z,60.9
2019-01-19T01:53:23.061Z,60.9
2019-01-19T01:54:13.064Z,60.9
2019-01-19T01:55:03.396Z,60.9
2019-01-19T01:55:53.454Z,60.9
2019-01-19T01:56:43.786Z,60.8
2019-01-19T01:57:33.549Z,60.8
2019-01-19T01:58:23.059Z,60.8
2019-01-19T01:59:13.941Z,60.8
2019-01-19T02:00:04.146Z,60.8
2019-01-19T02:00:54.046Z,60.8
2019-01-19T02:01:43.841Z,60.8
2019-01-19T02:02:34.183Z,60.8
2019-01-19T02:03:23.998Z,60.8
2019-01-19T02:04:14.288Z,60.8
2019-01-19T02:05:04.106Z,60.8
2019-01-19T02:05:54.110Z,60.8
2019-01-19T02:06:43.903Z,60.8
2019-01-19T02:07:34.506Z,60.8
2019-01-19T02:08:24.303Z,60.7
2019-01-19T02:09:14.633Z,60.7
2019-01-19T02:10:04.698Z,60.7
2019-01-19T02:10:54.468Z,60.7
2019-01-19T02:11:44.298Z,60.7
2019-01-19T02:12:33.750Z,60.7
2019-01-19T02:13:24.700Z,60.6
2019-01-19T02:14:14.140Z,60.6
2019-01-19T02:15:04.470Z,60.6
2019-01-19T02:15:54.816Z,60.6
2019-01-19T02:16:45.178Z,60.6
2019-01-19T02:17:35.195Z,60.6
2019-01-19T02:18:25.260Z,60.6
2019-01-19T02:19:15.320Z,60.6
2019-01-19T02:20:04.532Z,60.6
2019-01-19T02:20:55.152Z,60.6
2019-01-19T02:21:44.927Z,60.6
2019-01-19T02:22:35.532Z,60.6
2019-01-19T02:23:25.314Z,60.6
2019-01-19T02:24:15.107Z,60.6
2019-01-19T02:25:05.432Z,60.6
2019-01-19T02:25:55.769Z,60.5
2019-01-19T02:26:45.862Z,60.5
2019-01-19T02:27:35.324Z,60.5
2019-01-19T02:28:25.372Z,60.5
2019-01-19T02:29:16.006Z,60.5
2019-01-19T02:30:05.601Z,60.5
2019-01-19T02:30:56.104Z,60.5
2019-01-19T02:31:45.352Z,60.5
2019-01-19T02:32:35.960Z,60.4
2019-01-19T02:33:26.011Z,60.4
2019-01-19T02:34:15.781Z,60.4
2019-01-19T02:35:06.137Z,60.4
2019-01-19T02:35:55.894Z,60.4
2019-01-19T02:36:46.578Z,60.4
2019-01-19T02:37:36.589Z,60.4
2019-01-19T02:38:26.638Z,60.4
2019-01-19T02:39:16.396Z,60.4
2019-01-19T02:40:05.984Z,60.4
2019-01-19T02:40:56.323Z,60.4
2019-01-19T02:41:46.114Z,60.3
2019-01-19T02:42:36.476Z,60.3
2019-01-19T02:43:26.516Z,60.4
2019-01-19T02:44:15.986Z,60.6
2019-01-19T02:45:06.645Z,60.8
2019-01-19T02:45:57.164Z,60.9
2019-01-19T02:46:46.941Z,61.1
2019-01-19T02:47:37.243Z,61.4
2019-01-19T02:48:27.053Z,61.4
2019-01-19T02:49:17.087Z,61.5
2019-01-19T02:50:06.152Z,61.8
2019-01-19T02:50:57.000Z,61.9
2019-01-19T02:51:46.846Z,62
2019-01-19T02:52:36.862Z,62.1
2019-01-19T02:53:27.283Z,62.3
2019-01-19T02:54:16.693Z,62.4
2019-01-19T02:55:09.078Z,62.5
2019-01-19T02:55:57.484Z,62.6
2019-01-19T02:56:46.601Z,62.6
2019-01-19T02:57:37.240Z,62.9
2019-01-19T02:58:27.536Z,62.9
2019-01-19T02:59:16.770Z,63
2019-01-19T03:00:07.830Z,63.1
2019-01-19T03:00:57.901Z,63.3
2019-01-19T03:01:46.978Z,63.3
2019-01-19T03:02:38.015Z,63.4
2019-01-19T03:03:28.117Z,63.5
2019-01-19T03:04:17.932Z,63.6
2019-01-19T03:05:08.032Z,63.7
2019-01-19T03:08:40.549Z,64
2019-01-19T03:09:31.081Z,64.1
2019-01-19T03:10:20.822Z,64.1
2019-01-19T03:11:11.177Z,64.3
2019-01-19T03:12:00.945Z,64.4
2019-01-19T03:12:50.982Z,64.4
2019-01-19T03:13:41.300Z,64.4
2019-01-19T03:14:31.381Z,64.5
2019-01-19T03:15:21.431Z,64.6
2019-01-19T03:16:11.254Z,64.7
2019-01-19T03:17:01.279Z,64.7
2019-01-19T03:17:51.611Z,64.7
2019-01-19T03:18:41.781Z,64.9
2019-01-19T03:19:31.439Z,65
2019-01-19T03:20:21.769Z,65
2019-01-19T03:21:11.828Z,65
2019-01-19T03:22:02.134Z,65.1
2019-01-19T03:22:52.143Z,65.2
2019-01-19T03:23:42.489Z,65.3
2019-01-19T03:24:32.544Z,65.3
2019-01-19T03:25:22.160Z,65.3
2019-01-19T03:26:12.420Z,65.4
2019-01-19T03:27:02.476Z,65.5
2019-01-19T03:27:52.793Z,65.5
2019-01-19T03:28:42.867Z,65.5
2019-01-19T03:29:32.902Z,65.5
2019-01-19T03:30:23.264Z,65.6
2019-01-19T03:31:13.077Z,65.8
2019-01-19T03:32:02.900Z,65.8
2019-01-19T03:32:53.242Z,65.8
2019-01-19T03:33:42.906Z,65.8
2019-01-19T03:34:32.991Z,65.8
2019-01-19T03:35:23.006Z,66
2019-01-19T03:36:13.315Z,66
2019-01-19T03:37:03.396Z,66.1
2019-01-19T03:37:52.929Z,66
2019-01-19T03:38:43.241Z,66.1
2019-01-19T03:39:33.027Z,66.1
2019-01-19T03:40:23.371Z,66.1
2019-01-19T03:41:13.143Z,66.2
2019-01-19T03:42:03.479Z,66.3
2019-01-19T03:42:53.583Z,66.3
2019-01-19T03:43:43.340Z,66.3
2019-01-19T03:44:33.642Z,66.3
2019-01-19T03:45:23.975Z,66.3
2019-01-19T03:46:14.060Z,66.3
2019-01-19T03:47:03.522Z,66.3
2019-01-19T03:47:53.890Z,66.4
2019-01-19T03:48:43.914Z,66.3
2019-01-19T03:49:33.963Z,66.4
2019-01-19T03:50:24.006Z,66.4
2019-01-19T03:51:14.386Z,66.3
2019-01-19T03:52:03.870Z,66.3
2019-01-19T03:52:54.184Z,66.3
2019-01-19T03:53:44.261Z,66.3
2019-01-19T03:54:36.475Z,66.3
2019-01-19T03:55:24.445Z,66.3
2019-01-19T03:56:14.709Z,66.3
2019-01-19T03:57:04.776Z,66.3
2019-01-19T03:57:54.826Z,66.3
2019-01-19T03:58:44.047Z,66.3
2019-01-19T03:59:34.649Z,66.3
2019-01-19T04:00:24.498Z,66.3
2019-01-19T04:01:14.286Z,66.3
2019-01-19T04:02:04.334Z,66.3
2019-01-19T04:02:54.661Z,66.2
2019-01-19T04:03:44.739Z,66.2
2019-01-19T04:04:34.778Z,66.2
2019-01-19T04:05:25.051Z,66.2
2019-01-19T04:06:16.313Z,66.2
2019-01-19T04:07:04.883Z,66.2
2019-01-19T04:07:55.203Z,66.2
2019-01-19T04:08:45.586Z,66.2
2019-01-19T04:09:35.320Z,66.1
2019-01-19T04:10:25.005Z,66.1
2019-01-19T04:11:15.423Z,66.1
2019-01-19T04:12:05.761Z,66.1
2019-01-19T04:12:55.775Z,66.1
2019-01-19T04:13:45.956Z,66.1
2019-01-19T04:14:35.516Z,66.1
2019-01-19T04:15:26.002Z,66.1
2019-01-19T04:16:15.258Z,66.1
2019-01-19T04:17:05.540Z,66.1
2019-01-19T04:17:55.969Z,66
2019-01-19T04:18:45.929Z,66
2019-01-19T04:19:36.307Z,66
2019-01-19T04:20:26.400Z,66
2019-01-19T04:21:16.209Z,66
2019-01-19T04:22:06.192Z,66
2019-01-19T04:22:56.583Z,65.9
2019-01-19T04:23:45.721Z,65.9
2019-01-19T04:24:36.150Z,65.9
2019-01-19T04:25:26.242Z,65.9
2019-01-19T04:26:16.785Z,65.9
2019-01-19T04:27:06.790Z,65.9
2019-01-19T04:27:56.619Z,65.9
2019-01-19T04:28:46.934Z,65.9
2019-01-19T04:29:36.990Z,65.9
2019-01-19T04:30:26.736Z,65.9
2019-01-19T04:31:16.795Z,65.9
2019-01-19T04:32:06.719Z,65.8
2019-01-19T04:32:56.915Z,65.9
2019-01-19T04:33:47.240Z,65.8
2019-01-19T04:34:37.296Z,65.8
2019-01-19T04:35:27.394Z,65.8
2019-01-19T04:36:25.294Z,65.8
2019-01-19T04:37:06.987Z,65.8
2019-01-19T04:37:57.272Z,65.8
2019-01-19T04:38:47.614Z,65.8
2019-01-19T04:39:37.418Z,65.8
2019-01-19T04:40:27.435Z,65.8
2019-01-19T04:41:17.318Z,65.8
2019-01-19T04:42:07.911Z,65.8
2019-01-19T04:42:57.888Z,65.8
2019-01-19T04:43:47.671Z,65.8
2019-01-19T04:44:38.000Z,65.8
2019-01-19T04:45:28.057Z,65.7
2019-01-19T04:46:17.556Z,65.7
2019-01-19T04:47:07.649Z,65.7
2019-01-19T04:47:57.993Z,65.7
2019-01-19T04:48:48.258Z,65.7
2019-01-19T04:49:38.323Z,65.6
2019-01-19T04:50:28.373Z,65.6
2019-01-19T04:51:18.531Z,65.6
2019-01-19T04:52:08.508Z,65.6
2019-01-19T04:52:58.003Z,65.6
2019-01-19T04:53:48.368Z,65.6
2019-01-19T04:54:38.422Z,65.6
2019-01-19T04:55:28.447Z,65.6
2019-01-19T04:56:18.779Z,65.6
2019-01-19T04:57:08.832Z,65.6
2019-01-19T04:57:58.643Z,65.6
2019-01-19T04:58:48.699Z,65.6
2019-01-19T04:59:39.005Z,65.6
2019-01-19T05:00:28.518Z,65.5
2019-01-19T05:01:19.185Z,65.5
2019-01-19T05:02:09.183Z,65.5
2019-01-19T05:02:59.243Z,65.5
2019-01-19T05:03:48.539Z,65.5
2019-01-19T05:04:39.377Z,65.5
2019-01-19T05:05:28.949Z,65.4
2019-01-19T05:06:20.898Z,65.5
2019-01-19T05:07:09.026Z,65.4
2019-01-19T05:07:59.090Z,65.4
2019-01-19T05:08:49.153Z,65.4
2019-01-19T05:09:39.200Z,65.4
2019-01-19T05:10:29.273Z,65.4
2019-01-19T05:11:19.325Z,65.4
2019-01-19T05:12:09.108Z,65.4
2019-01-19T05:12:59.645Z,65.4
2019-01-19T05:13:49.701Z,65.4
2019-01-19T05:14:39.486Z,65.4
2019-01-19T05:15:29.811Z,65.4
2019-01-19T05:16:19.847Z,65.4
2019-01-19T05:17:10.225Z,65.3
2019-01-19T05:17:59.514Z,65.3
2019-01-19T05:18:49.265Z,65.3
2019-01-19T05:19:39.892Z,65.3
2019-01-19T05:20:29.950Z,65.3
2019-01-19T05:21:19.450Z,65.3
2019-01-19T05:22:10.257Z,65.3
2019-01-19T05:23:00.583Z,65.3
2019-01-19T05:23:50.365Z,65.3
2019-01-19T05:24:40.207Z,65.3
2019-01-19T05:25:30.275Z,65.3
2019-01-19T05:26:20.056Z,65.3
2019-01-19T05:27:10.392Z,65.3
2019-01-19T05:28:00.157Z,65.3
2019-01-19T05:28:50.689Z,65.2
2019-01-19T05:29:40.773Z,65.2
2019-01-19T05:30:31.092Z,65.2
2019-01-19T05:31:20.922Z,65.2
2019-01-19T05:32:10.927Z,65.2
2019-01-19T05:33:00.729Z,65.2
2019-01-19T05:33:51.037Z,65.1
2019-01-19T05:34:41.395Z,65.1
2019-01-19T05:35:31.144Z,65.1
2019-01-19T05:36:20.775Z,65.1
2019-01-19T05:37:11.073Z,65.1
2019-01-19T05:38:03.186Z,65.1
2019-01-19T05:38:50.950Z,65.1
2019-01-19T05:39:41.239Z,65.1
2019-01-19T05:40:31.014Z,65.1
2019-01-19T05:41:21.344Z,65.1
2019-01-19T05:42:11.891Z,65.1
2019-01-19T05:43:01.181Z,65.1
2019-01-19T05:43:51.526Z,65.1
2019-01-19T05:44:41.041Z,65.1
2019-01-19T05:45:31.885Z,65
2019-01-19T05:46:24.943Z,65
2019-01-19T05:47:12.248Z,65
2019-01-19T05:48:02.309Z,65
2019-01-19T05:48:52.046Z,65
2019-01-19T05:49:42.393Z,65
2019-01-19T05:50:32.494Z,64.9
2019-01-19T05:51:22.213Z,64.9
2019-01-19T05:52:11.831Z,64.9
2019-01-19T05:53:02.136Z,64.9
2019-01-19T05:53:52.212Z,64.9
2019-01-19T05:54:42.247Z,64.9
2019-01-19T05:55:32.238Z,64.9
2019-01-19T05:56:22.452Z,64.9
2019-01-19T05:57:12.938Z,64.9
2019-01-19T05:58:02.678Z,64.9
2019-01-19T05:58:52.471Z,64.9
2019-01-19T05:59:43.068Z,64.9
2019-01-19T06:00:32.897Z,64.9
2019-01-19T06:01:23.173Z,64.9
2019-01-19T06:02:13.255Z,64.9
2019-01-19T06:03:03.037Z,64.8
2019-01-19T06:03:53.366Z,64.8
2019-01-19T06:04:43.176Z,64.8
2019-01-19T06:06:49.778Z,64.8
2019-01-19T06:07:31.106Z,64.8
2019-01-19T06:08:21.159Z,64.8
2019-01-19T06:09:11.490Z,64.8
2019-01-19T06:10:00.982Z,64.8
2019-01-19T06:10:51.312Z,64.8
2019-01-19T06:11:41.113Z,64.8
2019-01-19T06:12:31.127Z,64.8
2019-01-19T06:13:21.529Z,64.7
2019-01-19T06:14:11.800Z,64.7
2019-01-19T06:15:01.325Z,64.7
2019-01-19T06:15:51.373Z,64.7
2019-01-19T06:16:41.469Z,64.7
2019-01-19T06:17:31.204Z,64.7
2019-01-19T06:18:22.082Z,64.7
2019-01-19T06:19:12.151Z,64.6
2019-01-19T06:20:01.995Z,64.6
2019-01-19T06:20:51.961Z,64.6
2019-01-19T06:21:41.471Z,64.6
2019-01-19T06:22:31.824Z,64.6
2019-01-19T06:23:22.176Z,64.6
2019-01-19T06:24:11.926Z,64.6
2019-01-19T06:25:02.605Z,64.6
2019-01-19T06:25:52.223Z,64.6
2019-01-19T06:26:41.808Z,64.6
2019-01-19T06:27:32.148Z,64.6
2019-01-19T06:28:22.201Z,64.6
2019-01-19T06:29:12.589Z,64.6
2019-01-19T06:30:02.329Z,64.6
2019-01-19T06:30:52.661Z,64.6
2019-01-19T06:31:42.162Z,64.5
2019-01-19T06:32:32.555Z,64.5
2019-01-19T06:33:22.412Z,64.5
2019-01-19T06:34:12.397Z,64.5
2019-01-19T06:35:01.942Z,64.4
2019-01-19T06:35:52.976Z,64.4
2019-01-19T06:36:43.139Z,64.4
2019-01-19T06:37:33.405Z,64.4
2019-01-19T06:38:22.966Z,64.4
2019-01-19T06:39:13.021Z,64.4
2019-01-19T06:40:02.986Z,64.4
2019-01-19T06:40:53.625Z,64.4
2019-01-19T06:41:43.387Z,64.4
2019-01-19T06:42:33.450Z,64.4
2019-01-19T06:43:23.771Z,64.4
2019-01-19T06:44:13.601Z,64.4
2019-01-19T06:45:03.452Z,64.4
2019-01-19T06:45:53.402Z,64.4
2019-01-19T06:46:43.982Z,64.4
2019-01-19T06:47:34.034Z,64.3
2019-01-19T06:48:23.827Z,64.3
2019-01-19T06:49:14.172Z,64.3
2019-01-19T06:50:04.041Z,64.3
2019-01-19T06:50:53.999Z,64.3
2019-01-19T06:51:44.314Z,64.3
2019-01-19T06:52:33.832Z,64.3
2019-01-19T06:53:24.457Z,64.3
2019-01-19T06:54:14.206Z,64.3
2019-01-19T06:55:04.014Z,64.3
2019-01-19T06:55:54.337Z,64.3
2019-01-19T06:56:43.919Z,64.3
2019-01-19T06:57:34.239Z,64.3
2019-01-19T06:58:24.781Z,64.3
2019-01-19T06:59:20.816Z,64.2
2019-01-19T07:00:04.341Z,64.2
2019-01-19T07:00:54.953Z,64.2
2019-01-19T07:01:45.009Z,64.2
2019-01-19T07:02:35.053Z,64.2
2019-01-19T07:03:25.189Z,64.2
2019-01-19T07:04:14.904Z,64.1
2019-01-19T07:06:41.408Z,64.1
2019-01-19T07:07:31.321Z,64.1
2019-01-19T07:08:22.781Z,64.1
2019-01-19T07:09:11.166Z,64.1
2019-01-19T07:10:01.478Z,64.1
2019-01-19T07:10:51.540Z,64.1
2019-01-19T07:11:41.645Z,64.1
2019-01-19T07:12:31.668Z,64.1
2019-01-19T07:13:21.473Z,64.1
2019-01-19T07:14:11.765Z,64.1
2019-01-19T07:15:01.830Z,64.1
2019-01-19T07:15:51.970Z,64
2019-01-19T07:16:41.700Z,64
2019-01-19T07:17:32.030Z,64
2019-01-19T07:18:22.052Z,64
2019-01-19T07:19:12.096Z,64
2019-01-19T07:20:01.405Z,63.9
2019-01-19T07:20:51.787Z,63.9
2019-01-19T07:21:42.285Z,63.9
2019-01-19T07:22:32.332Z,63.9
2019-01-19T07:23:22.397Z,63.9
2019-01-19T07:24:12.452Z,63.9
2019-01-19T07:25:02.712Z,63.9
2019-01-19T07:25:52.334Z,63.9
2019-01-19T07:26:42.319Z,63.9
2019-01-19T07:27:32.672Z,63.9
2019-01-19T07:28:22.467Z,63.9
2019-01-19T07:29:12.786Z,63.9
2019-01-19T07:30:02.879Z,63.9
2019-01-19T07:30:52.876Z,63.9
2019-01-19T07:31:42.955Z,63.8
2019-01-19T07:32:32.724Z,63.9
2019-01-19T07:33:22.784Z,63.8
2019-01-19T07:34:12.839Z,63.8
2019-01-19T07:35:02.984Z,63.8
2019-01-19T07:35:52.982Z,63.8
2019-01-19T07:36:43.055Z,63.8
2019-01-19T07:37:33.338Z,63.8
2019-01-19T07:38:23.459Z,63.8
2019-01-19T07:39:13.448Z,63.8
2019-01-19T07:40:03.306Z,63.8
2019-01-19T07:40:53.293Z,63.8
2019-01-19T07:41:43.637Z,63.8
2019-01-19T07:42:34.997Z,63.8
2019-01-19T07:43:23.204Z,63.7
2019-01-19T07:44:13.790Z,63.7
2019-01-19T07:45:03.930Z,63.7
2019-01-19T07:45:53.411Z,63.7
2019-01-19T07:46:43.691Z,63.7
2019-01-19T07:47:34.005Z,63.7
2019-01-19T07:48:23.783Z,63.7
2019-01-19T07:49:14.120Z,63.6
2019-01-19T07:50:03.935Z,63.6
2019-01-19T07:50:54.228Z,63.6
2019-01-19T07:51:44.315Z,63.6
2019-01-19T07:52:34.400Z,63.6
2019-01-19T07:53:24.428Z,63.6
2019-01-19T07:54:14.470Z,63.6
2019-01-19T07:55:04.245Z,63.6
2019-01-19T07:55:54.333Z,63.6
2019-01-19T07:56:44.640Z,63.6
2019-01-19T07:57:35.112Z,63.6
2019-01-19T07:58:24.726Z,63.6
2019-01-19T07:59:14.806Z,63.5
2019-01-19T08:00:04.874Z,63.6
2019-01-19T08:00:54.639Z,63.5
2019-01-19T08:01:44.984Z,63.5
2019-01-19T08:02:34.190Z,63.5
2019-01-19T08:03:24.812Z,63.5
2019-01-19T08:04:15.132Z,63.5
2019-01-19T08:05:04.639Z,63.5
2019-01-19T08:05:55.259Z,63.4
2019-01-19T08:06:44.999Z,63.4
2019-01-19T08:07:35.374Z,63.4
2019-01-19T08:08:26.933Z,63.4
2019-01-19T08:09:15.197Z,63.4
2019-01-19T08:10:05.251Z,63.4
2019-01-19T08:10:55.037Z,63.4
2019-01-19T08:11:45.657Z,63.4
2019-01-19T08:12:35.437Z,63.4
2019-01-19T08:13:25.806Z,63.4
2019-01-19T08:14:15.259Z,63.4
2019-01-19T08:15:05.616Z,63.4
2019-01-19T08:15:55.984Z,63.3
2019-01-19T08:16:45.989Z,63.3
2019-01-19T08:17:36.039Z,63.3
2019-01-19T08:18:25.821Z,63.3
2019-01-19T08:19:16.151Z,63.3
2019-01-19T08:20:06.202Z,63.3
2019-01-19T08:20:55.986Z,63.3
2019-01-19T08:21:46.323Z,63.3
2019-01-19T08:22:36.108Z,63.3
2019-01-19T08:23:28.191Z,63.3
2019-01-19T08:24:16.221Z,63.3
2019-01-19T08:25:06.538Z,63.3
2019-01-19T08:25:56.607Z,63.2
2019-01-19T08:26:46.670Z,63.3
2019-01-19T08:27:36.155Z,63.3
2019-01-19T08:28:26.800Z,63.2
2019-01-19T08:29:18.324Z,63.2
2019-01-19T08:30:06.888Z,63.2
2019-01-19T08:30:56.675Z,63.2
2019-01-19T08:31:47.010Z,63.2
2019-01-19T08:32:37.088Z,63.2
2019-01-19T08:33:26.893Z,63.1
2019-01-19T08:34:17.175Z,63.1
2019-01-19T08:35:07.251Z,63.1
2019-01-19T08:35:57.000Z,63.1
2019-01-19T08:36:47.333Z,63.1
2019-01-19T08:37:37.383Z,63.1
2019-01-19T08:38:27.172Z,63.1
2019-01-19T08:39:18.707Z,63.1
2019-01-19T08:40:07.560Z,63.1
2019-01-19T08:40:58.940Z,63.1
2019-01-19T08:41:47.665Z,63.1
2019-01-19T08:42:37.174Z,63.1
2019-01-19T08:43:27.802Z,63
2019-01-19T08:44:17.284Z,63
2019-01-19T08:45:07.917Z,63
2019-01-19T08:45:57.679Z,63
2019-01-19T08:46:48.026Z,63
2019-01-19T08:47:38.079Z,63
2019-01-19T08:48:28.172Z,63
2019-01-19T08:49:18.237Z,62.9
2019-01-19T08:50:08.238Z,62.9
2019-01-19T08:50:58.287Z,62.9
2019-01-19T08:51:48.361Z,62.9
2019-01-19T08:52:38.414Z,62.9
2019-01-19T08:53:28.464Z,62.9
2019-01-19T08:54:18.238Z,62.9
2019-01-19T08:55:08.291Z,62.9
2019-01-19T08:55:58.634Z,62.9
2019-01-19T08:56:48.706Z,62.9
2019-01-19T08:57:38.754Z,62.9
2019-01-19T08:58:28.526Z,62.9
2019-01-19T08:59:18.856Z,62.8
2019-01-19T09:00:08.908Z,62.9
2019-01-19T09:00:58.979Z,62.8
2019-01-19T09:01:49.068Z,62.8
2019-01-19T09:02:39.076Z,62.8
2019-01-19T09:03:28.866Z,62.8
2019-01-19T09:04:19.248Z,62.8
2019-01-19T09:05:08.960Z,62.8
2019-01-19T09:05:59.355Z,62.8
2019-01-19T09:06:49.368Z,62.8
2019-01-19T09:07:38.943Z,62.8
2019-01-19T09:08:29.535Z,62.8
2019-01-19T09:09:19.258Z,62.8
2019-01-19T09:10:09.591Z,62.8
2019-01-19T09:10:59.158Z,62.8
2019-01-19T09:11:49.702Z,62.7
2019-01-19T09:12:39.760Z,62.7
2019-01-19T09:13:30.067Z,62.7
2019-01-19T09:14:19.870Z,62.7
2019-01-19T09:15:09.950Z,62.6
2019-01-19T09:15:59.994Z,62.6
2019-01-19T09:16:50.117Z,62.6
2019-01-19T09:17:40.117Z,62.6
2019-01-19T09:18:29.879Z,62.6
2019-01-19T09:19:20.228Z,62.6
2019-01-19T09:20:10.260Z,62.6
2019-01-19T09:21:00.057Z,62.6
2019-01-19T09:21:51.707Z,62.6
2019-01-19T09:22:40.226Z,62.5
2019-01-19T09:23:30.225Z,62.6
2019-01-19T09:24:20.582Z,62.5
2019-01-19T09:25:10.621Z,62.5
2019-01-19T09:26:00.390Z,62.5
2019-01-19T09:26:50.439Z,62.4
2019-01-19T09:27:40.553Z,62.4
2019-01-19T09:28:30.834Z,62.4
2019-01-19T09:29:20.619Z,62.4
2019-01-19T09:30:10.669Z,62.4
2019-01-19T09:31:01.011Z,62.4
2019-01-19T09:31:50.817Z,62.4
2019-01-19T09:32:41.126Z,62.4
2019-01-19T09:33:31.194Z,62.4
2019-01-19T09:34:20.958Z,62.3
2019-01-19T09:35:11.291Z,62.3
2019-01-19T09:36:01.348Z,62.3
2019-01-19T09:36:51.123Z,62.3
2019-01-19T09:37:44.861Z,62.3
2019-01-19T09:38:31.566Z,62.3
2019-01-19T09:39:21.570Z,62.3
2019-01-19T09:40:13.178Z,62.3
2019-01-19T09:41:01.415Z,62.2
2019-01-19T09:41:51.738Z,62.2
2019-01-19T09:42:41.513Z,62.2
2019-01-19T09:43:31.859Z,62.2
2019-01-19T09:44:21.923Z,62.1
2019-01-19T09:45:11.966Z,62.1
2019-01-19T09:46:02.016Z,62.1
2019-01-19T09:46:51.533Z,62.1
2019-01-19T09:47:42.125Z,62.1
2019-01-19T09:48:32.195Z,62.1
2019-01-19T09:49:22.268Z,62.1
2019-01-19T09:50:12.016Z,62.1
2019-01-19T09:51:02.093Z,62.1
2019-01-19T09:51:52.142Z,62
2019-01-19T09:52:42.537Z,62
2019-01-19T09:53:32.534Z,62
2019-01-19T09:54:22.367Z,62
2019-01-19T09:55:12.387Z,61.9
2019-01-19T09:56:02.760Z,61.9
2019-01-19T09:56:52.747Z,61.9
2019-01-19T09:57:42.827Z,61.9
2019-01-19T09:58:32.875Z,61.9
2019-01-19T09:59:22.928Z,61.9
2019-01-19T10:00:13.026Z,61.9
2019-01-19T10:01:02.776Z,61.8
2019-01-19T10:01:53.105Z,61.8
2019-01-19T10:02:42.876Z,61.8
2019-01-19T10:03:33.222Z,61.8
2019-01-19T10:04:22.980Z,61.7
2019-01-19T10:05:13.352Z,61.7
2019-01-19T10:07:40.544Z,61.6
2019-01-19T10:08:30.601Z,61.6
2019-01-19T10:09:21.221Z,61.6
2019-01-19T10:10:11.044Z,61.5
2019-01-19T10:11:01.337Z,61.5
2019-01-19T10:11:51.444Z,61.5
2019-01-19T10:12:41.208Z,61.5
2019-01-19T10:13:31.511Z,61.4
2019-01-19T10:14:21.323Z,61.4
2019-01-19T10:15:11.336Z,61.4
2019-01-19T10:16:01.124Z,61.4
2019-01-19T10:16:51.450Z,61.4
2019-01-19T10:17:41.503Z,61.4
2019-01-19T10:18:31.283Z,61.3
2019-01-19T10:19:21.615Z,61.3
2019-01-19T10:20:11.723Z,61.3
2019-01-19T10:21:02.011Z,61.3
2019-01-19T10:21:52.070Z,61.3
2019-01-19T10:22:42.166Z,61.3
2019-01-19T10:23:31.616Z,61.3
2019-01-19T10:24:22.258Z,61.3
2019-01-19T10:25:12.293Z,61.2
2019-01-19T10:26:02.066Z,61.2
2019-01-19T10:26:52.422Z,61.2
2019-01-19T10:27:42.448Z,61.2
2019-01-19T10:28:32.523Z,61.1
2019-01-19T10:29:21.542Z,61.1
2019-01-19T10:30:12.398Z,61.1
2019-01-19T10:31:02.695Z,61.1
2019-01-19T10:31:52.205Z,61.1
2019-01-19T10:32:42.325Z,61.1
2019-01-19T10:33:32.857Z,61.1
2019-01-19T10:34:22.930Z,61.1
2019-01-19T10:35:12.973Z,61.1
2019-01-19T10:36:02.452Z,61
2019-01-19T10:36:53.090Z,61
2019-01-19T10:37:42.877Z,61
2019-01-19T10:38:32.439Z,60.9
2019-01-19T10:39:22.547Z,60.9
2019-01-19T10:40:12.765Z,60.9
2019-01-19T10:41:03.364Z,60.9
2019-01-19T10:41:53.165Z,60.9
2019-01-19T10:42:43.472Z,60.8
2019-01-19T10:43:33.557Z,60.8
2019-01-19T10:44:23.601Z,60.8
2019-01-19T10:45:13.634Z,60.8
2019-01-19T10:46:03.442Z,60.8
2019-01-19T10:46:53.825Z,60.8
2019-01-19T10:47:43.554Z,60.7
2019-01-19T10:48:33.604Z,60.7
2019-01-19T10:49:23.657Z,60.7
2019-01-19T10:50:13.788Z,60.7
2019-01-19T10:51:04.057Z,60.6
2019-01-19T10:52:00.918Z,60.6
2019-01-19T10:52:44.171Z,60.6
2019-01-19T10:53:34.217Z,60.6
2019-01-19T10:54:24.053Z,60.6
2019-01-19T10:55:13.005Z,60.6
2019-01-19T10:56:03.941Z,60.6
2019-01-19T10:56:53.683Z,60.5
2019-01-19T10:57:43.756Z,60.5
2019-01-19T10:58:33.793Z,60.5
2019-01-19T10:59:23.861Z,60.5
2019-01-19T11:00:14.183Z,60.4
2019-01-19T11:01:03.718Z,60.4
2019-01-19T11:01:54.796Z,60.4
2019-01-19T11:02:44.579Z,60.4
2019-01-19T11:03:34.626Z,60.4
2019-01-19T11:04:24.668Z,60.4
2019-01-19T11:05:15.005Z,60.3
2019-01-19T11:06:05.176Z,60.3
2019-01-19T11:06:55.128Z,60.2
2019-01-19T11:07:45.176Z,60.2
2019-01-19T11:08:34.978Z,60.2
2019-01-19T11:09:25.031Z,60.1
2019-01-19T11:10:15.087Z,60.1
2019-01-19T11:11:05.421Z,60.1
2019-01-19T11:11:55.467Z,60
2019-01-19T11:12:44.980Z,59.9
2019-01-19T11:13:35.563Z,59.9
2019-01-19T11:14:25.372Z,59.9
2019-01-19T11:15:15.478Z,59.9
2019-01-19T11:16:05.765Z,59.8
2019-01-19T11:16:54.980Z,59.8